Time;durP1;ratioP1;P1;durP2;ratioP2;P2;SDS_P1;SDS_P2;PMS_P1;PMS_P2;Temp;Humidity;BMP_temperature;BMP_pressure;BME280_temperature;BME280_humidity;BME280_pressure;Samples;Min_cycle;Max_cycle;Signal;HPM_P1;HPM_P2
2021/09/21 00:02:02;;;;;;;0.30;0.20;;;;;;;14.31;87.09;101051.41;5002348;28;21039;-54
2021/09/21 00:04:29;;;;;;;1.83;1.73;;;;;;;14.38;87.07;101054.75;5001962;28;20449;-54
2021/09/21 00:06:57;;;;;;;0.30;0.20;;;;;;;14.30;86.13;101057.69;5006403;28;20860;-54
2021/09/21 00:09:24;;;;;;;0.40;0.30;;;;;;;14.33;85.73;101060.25;5004004;28;20525;-54
2021/09/21 00:11:54;;;;;;;0.40;0.30;;;;;;;14.32;85.56;101057.63;4999463;28;20480;-54
2021/09/21 00:14:21;;;;;;;0.50;0.50;;;;;;;14.34;85.25;101064.69;5001357;28;20492;-55
2021/09/21 00:16:48;;;;;;;0.93;0.93;;;;;;;14.24;85.35;101058.72;5006135;28;20457;-54
2021/09/21 00:19:15;;;;;;;0.60;0.60;;;;;;;14.08;85.83;101065.47;5004737;28;20480;-54
2021/09/21 00:21:42;;;;;;;0.40;0.20;;;;;;;14.17;85.37;101061.66;4997865;28;20500;-54
2021/09/21 00:24:09;;;;;;;0.50;0.40;;;;;;;14.19;85.58;101066.03;5000649;28;20512;-54
2021/09/21 00:26:36;;;;;;;0.47;0.47;;;;;;;14.21;85.75;101065.97;5005708;28;20935;-54
2021/09/21 00:29:03;;;;;;;0.63;0.63;;;;;;;14.41;84.88;101063.56;5005300;28;20488;-54
2021/09/21 00:31:37;;;;;;;0.40;0.30;;;;;;;14.30;84.70;101068.38;4998708;28;20511;-54
2021/09/21 00:34:11;;;;;;;0.40;0.20;;;;;;;14.33;84.94;101072.75;5006051;28;20869;-54
2021/09/21 00:36:40;;;;;;;0.40;0.40;;;;;;;14.47;84.47;101079.44;4999810;28;20514;-54
2021/09/21 00:39:11;;;;;;;0.40;0.20;;;;;;;14.24;84.75;101081.91;4997695;28;20492;-54
2021/09/21 00:41:40;;;;;;;0.40;0.37;;;;;;;14.04;85.16;101093.25;5003222;28;20523;-54
2021/09/21 00:44:08;;;;;;;0.30;0.20;;;;;;;14.13;84.68;101081.41;5005965;28;20457;-54
2021/09/21 00:46:35;;;;;;;1.53;0.77;;;;;;;14.17;84.61;101085.72;5011216;28;20484;-54
2021/09/21 00:49:03;;;;;;;0.40;0.20;;;;;;;14.21;84.39;101095.41;4999097;28;20520;-55
2021/09/21 00:51:31;;;;;;;0.40;0.30;;;;;;;14.12;84.65;101090.34;5002974;28;20477;-54
2021/09/21 00:53:58;;;;;;;0.30;0.20;;;;;;;14.02;84.88;101089.75;5009733;28;20489;-54
2021/09/21 00:56:25;;;;;;;0.40;0.20;;;;;;;14.14;85.23;101077.81;5006692;28;20486;-54
2021/09/21 00:58:52;;;;;;;0.50;0.50;;;;;;;14.10;85.19;101076.13;5011473;28;20828;-54
2021/09/21 01:01:18;;;;;;;0.30;0.20;;;;;;;13.99;85.11;101087.16;5003178;28;20524;-55
2021/09/21 01:03:46;;;;;;;0.40;0.20;;;;;;;13.92;84.99;101082.91;5010320;28;20453;-54
2021/09/21 01:06:13;;;;;;;0.60;0.60;;;;;;;14.01;84.47;101076.44;5008657;28;21008;-53
2021/09/21 01:08:41;;;;;;;0.30;0.20;;;;;;;14.00;83.83;101083.56;5002718;28;20444;-54
2021/09/21 01:11:12;;;;;;;0.73;0.73;;;;;;;13.88;84.12;101079.47;5003576;28;20472;-54
2021/09/21 01:13:40;;;;;;;0.30;0.20;;;;;;;14.09;84.07;101085.94;5009457;28;20450;-54
2021/09/21 01:16:08;;;;;;;0.30;0.20;;;;;;;13.96;83.94;101089.03;5009183;28;20484;-54
2021/09/21 01:18:35;;;;;;;0.30;0.20;;;;;;;13.92;83.52;101080.25;5002963;28;20456;-54
2021/09/21 01:21:04;;;;;;;0.47;0.47;;;;;;;14.04;83.52;101087.03;5002424;28;20483;-54
2021/09/21 01:23:42;;;;;;;0.40;0.40;;;;;;;13.97;83.78;101096.13;5008283;28;20456;-54
2021/09/21 01:26:09;;;;;;;0.53;0.53;;;;;;;14.00;84.06;101096.06;5009002;28;20460;-54
2021/09/21 01:28:36;;;;;;;1.33;1.17;;;;;;;13.94;83.99;101095.31;5003802;28;20872;-54
2021/09/21 01:31:02;;;;;;;2.97;1.70;;;;;;;14.04;83.62;101092.38;5005330;28;20462;-54
2021/09/21 01:33:29;;;;;;;0.30;0.20;;;;;;;13.97;84.14;101088.97;5005242;28;20457;-54
2021/09/21 01:35:56;;;;;;;0.40;0.30;;;;;;;13.86;83.63;101091.13;4999317;28;20465;-54
2021/09/21 01:38:23;;;;;;;0.40;0.30;;;;;;;13.96;83.83;101097.06;5005614;28;20480;-54
2021/09/21 01:40:50;;;;;;;0.40;0.20;;;;;;;13.94;84.08;101091.75;5002346;28;20472;-54
2021/09/21 01:43:17;;;;;;;0.40;0.20;;;;;;;13.91;84.39;101099.88;5005438;28;21033;-54
2021/09/21 01:45:44;;;;;;;0.40;0.20;;;;;;;13.91;83.66;101098.06;5008640;28;20500;-54
2021/09/21 01:48:11;;;;;;;0.40;0.30;;;;;;;13.94;83.80;101106.00;5006071;28;20522;-54
2021/09/21 02:01:01;;;;;;;0.30;0.20;;;;;;;13.81;84.36;101133.13;4991351;28;20476;-53
2021/09/21 02:03:28;;;;;;;0.30;0.20;;;;;;;13.87;83.82;101132.97;5008184;28;20448;-54
2021/09/21 02:05:55;;;;;;;0.30;0.20;;;;;;;13.91;84.27;101129.28;5004673;28;20491;-54
2021/09/21 02:08:22;;;;;;;0.30;0.20;;;;;;;13.97;84.79;101129.06;5001756;28;20453;-54
2021/09/21 02:10:49;;;;;;;0.30;0.20;;;;;;;13.90;85.20;101123.06;5005527;28;20497;-55
2021/09/21 02:13:16;;;;;;;0.30;0.20;;;;;;;13.93;85.65;101127.44;5008115;28;20481;-54
2021/09/21 02:15:43;;;;;;;0.30;0.20;;;;;;;13.96;85.73;101124.66;5005113;28;20487;-54
2021/09/21 02:18:10;;;;;;;0.40;0.30;;;;;;;13.92;86.30;101117.66;5001807;28;20457;-54
2021/09/21 02:20:37;;;;;;;0.30;0.20;;;;;;;13.98;86.21;101122.84;5004931;28;20454;-54
2021/09/21 02:23:04;;;;;;;0.40;0.40;;;;;;;13.93;86.75;101117.59;5008091;28;20987;-54
2021/09/21 02:25:31;;;;;;;0.30;0.20;;;;;;;13.81;87.04;101119.75;5004457;28;20484;-54
2021/09/21 02:27:58;;;;;;;0.30;0.20;;;;;;;14.01;86.78;101130.75;5001477;28;20472;-54
2021/09/21 02:30:24;;;;;;;0.40;0.30;;;;;;;13.72;87.70;101133.41;5006704;28;20520;-54
2021/09/21 02:32:51;;;;;;;0.40;0.33;;;;;;;13.75;87.39;101125.28;5001069;28;20468;-54
2021/09/21 02:35:18;;;;;;;0.40;0.20;;;;;;;13.75;87.49;101126.16;5003643;28;20453;-54
2021/09/21 02:37:47;;;;;;;0.30;0.20;;;;;;;13.64;87.94;101122.91;5008120;28;20524;-54
2021/09/21 02:40:15;;;;;;;1.07;1.07;;;;;;;13.73;87.91;101111.97;5006365;28;20503;-54
2021/09/21 02:42:42;;;;;;;0.30;0.20;;;;;;;13.60;88.33;101115.91;4994733;28;20564;-54
2021/09/21 02:45:10;;;;;;;0.40;0.20;;;;;;;13.74;88.20;101123.53;5006724;28;20484;-54
2021/09/21 02:47:37;;;;;;;0.50;0.50;;;;;;;13.80;87.90;101121.56;5001293;28;20832;-55
2021/09/21 02:50:07;;;;;;;0.30;0.20;;;;;;;13.84;87.77;101115.22;5001596;28;20527;-54
2021/09/21 02:52:34;;;;;;;0.30;0.20;;;;;;;13.76;88.56;101122.56;5007575;28;21002;-54
2021/09/21 02:55:04;;;;;;;0.70;0.70;;;;;;;13.79;88.77;101129.63;5007352;28;20456;-56
2021/09/21 02:57:34;;;;;;;0.53;0.40;;;;;;;13.85;88.40;101122.31;5014492;28;20893;-54
2021/09/21 03:00:06;;;;;;;0.30;0.20;;;;;;;13.93;88.48;101124.75;5000589;28;20508;-54
2021/09/21 03:02:34;;;;;;;0.30;0.20;;;;;;;13.96;87.96;101131.81;5006299;28;20472;-54
2021/09/21 03:05:08;;;;;;;0.30;0.20;;;;;;;13.92;88.41;101131.91;5001021;28;20445;-54
2021/09/21 03:13:19;;;;;;;0.40;0.30;;;;;;;13.89;88.57;101136.47;5006416;28;20884;-54
2021/09/21 03:18:32;;;;;;;0.40;0.20;;;;;;;13.66;89.77;101147.78;4966287;28;20878;-54
2021/09/21 03:20:59;;;;;;;0.57;0.57;;;;;;;13.68;90.26;101151.28;4995817;28;20485;-54
2021/09/21 03:23:27;;;;;;;0.40;0.30;;;;;;;13.54;90.82;101162.34;5006742;28;20954;-54
2021/09/21 03:25:54;;;;;;;0.77;0.77;;;;;;;13.49;90.75;101158.06;5007035;28;20480;-54
2021/09/21 03:28:21;;;;;;;0.40;0.30;;;;;;;13.48;91.13;101156.31;5001120;28;20449;-55
2021/09/21 03:30:48;;;;;;;0.30;0.20;;;;;;;13.57;90.53;101161.41;5004462;28;20501;-54
2021/09/21 03:33:15;;;;;;;0.60;0.47;;;;;;;13.68;89.08;101159.31;5001640;28;20512;-54
2021/09/21 03:35:42;;;;;;;0.30;0.20;;;;;;;13.70;87.91;101168.16;5000354;28;20457;-54
2021/09/21 03:38:09;;;;;;;0.30;0.20;;;;;;;13.65;88.21;101167.41;5005032;28;20980;-54
2021/09/21 03:40:36;;;;;;;0.30;0.20;;;;;;;13.55;89.29;101177.44;5006633;28;20498;-54
2021/09/21 03:43:03;;;;;;;0.37;0.27;;;;;;;13.47;90.01;101171.44;5001107;28;20472;-55
2021/09/21 03:45:31;;;;;;;0.40;0.20;;;;;;;13.38;90.40;101179.69;4999847;28;20520;-54
2021/09/21 03:47:57;;;;;;;0.30;0.20;;;;;;;13.41;90.54;101174.28;5004197;28;20477;-54
2021/09/21 03:50:24;;;;;;;0.30;0.20;;;;;;;13.61;89.12;101171.97;5006295;28;20591;-55
2021/09/21 03:52:51;;;;;;;0.40;0.37;;;;;;;13.66;86.85;101178.97;5003141;28;20488;-54
2021/09/21 03:55:19;;;;;;;0.40;0.20;;;;;;;13.71;86.36;101169.06;4999438;28;20487;-55
2021/09/21 03:57:47;;;;;;;0.30;0.20;;;;;;;13.87;84.71;101173.94;5013231;28;20512;-54
2021/09/21 04:00:14;;;;;;;0.30;0.20;;;;;;;13.67;86.96;101173.56;4999641;28;20444;-55
2021/09/21 04:02:41;;;;;;;0.30;0.20;;;;;;;13.54;85.86;101167.69;5006211;28;20468;-55
2021/09/21 04:05:09;;;;;;;0.40;0.20;;;;;;;13.57;85.99;101172.97;4999578;28;20470;-55
2021/09/21 04:07:37;;;;;;;0.30;0.20;;;;;;;13.56;86.71;101167.66;5001759;28;20457;-54
2021/09/21 04:10:06;;;;;;;0.30;0.20;;;;;;;13.76;86.11;101165.31;5005935;28;20529;-54
2021/09/21 04:12:35;;;;;;;0.70;0.70;;;;;;;13.73;86.09;101178.78;5003585;28;20480;-55
2021/09/21 04:15:04;;;;;;;0.30;0.20;;;;;;;13.72;86.39;101174.34;4999446;28;20467;-55
2021/09/21 04:17:31;;;;;;;0.40;0.40;;;;;;;13.63;83.99;101177.25;5000131;28;20892;-54
2021/09/21 04:19:58;;;;;;;0.40;0.30;;;;;;;13.81;83.30;101175.88;5006258;28;20885;-55
2021/09/21 04:22:27;;;;;;;0.30;0.20;;;;;;;13.64;83.60;101189.69;5004437;28;20527;-55
2021/09/21 04:24:55;;;;;;;0.30;0.20;;;;;;;13.84;78.60;101181.13;4998994;28;20493;-54
2021/09/21 04:27:22;;;;;;;0.30;0.20;;;;;;;13.88;79.13;101173.00;4998848;28;21033;-55
2021/09/21 04:29:54;;;;;;;0.30;0.20;;;;;;;13.97;79.59;101181.66;5005954;28;20563;-55
2021/09/21 04:32:21;;;;;;;0.30;0.20;;;;;;;13.83;81.03;101180.25;4998641;28;20508;-54
2021/09/21 04:34:50;;;;;;;0.30;0.23;;;;;;;13.87;82.67;101179.28;4986637;28;20456;-55
2021/09/21 04:37:17;;;;;;;9.10;1.90;;;;;;;13.60;84.90;101188.91;4999436;28;20462;-55
2021/09/21 04:39:44;;;;;;;0.30;0.20;;;;;;;13.79;84.93;101193.75;5005244;28;20449;-54
2021/09/21 04:42:11;;;;;;;0.30;0.20;;;;;;;13.89;84.65;101195.25;5005920;28;20507;-55
2021/09/21 04:44:39;;;;;;;0.40;0.30;;;;;;;13.89;84.11;101187.25;5001356;28;20449;-54
2021/09/21 04:47:06;;;;;;;0.50;0.50;;;;;;;13.49;86.58;101188.31;4999099;28;20453;-55
2021/09/21 04:49:34;;;;;;;0.30;0.20;;;;;;;13.34;87.96;101194.94;5004016;28;20511;-54
2021/09/21 04:52:02;;;;;;;0.40;0.30;;;;;;;13.57;87.28;101196.13;5004461;28;20476;-54
2021/09/21 04:54:29;;;;;;;0.30;0.30;;;;;;;13.65;85.82;101207.47;5001623;28;20484;-55
2021/09/21 04:56:55;;;;;;;8.63;1.17;;;;;;;13.71;85.47;101218.03;5011779;28;20452;-54
2021/09/21 04:59:23;;;;;;;0.40;0.30;;;;;;;13.66;85.31;101211.03;5003341;28;20529;-55
2021/09/21 05:01:50;;;;;;;0.30;0.20;;;;;;;13.54;84.41;101226.47;5001184;28;20473;-54
2021/09/21 05:04:17;;;;;;;0.30;0.20;;;;;;;13.69;83.80;101214.50;5003188;28;20492;-54
2021/09/21 05:06:44;;;;;;;1.03;1.03;;;;;;;13.85;83.50;101218.53;5005996;28;20484;-54
2021/09/21 05:09:15;;;;;;;0.30;0.20;;;;;;;13.87;84.01;101218.47;5001839;28;20941;-54
2021/09/21 05:11:45;;;;;;;0.53;0.53;;;;;;;13.88;81.96;101212.22;4998814;28;20527;-56
2021/09/21 05:14:13;;;;;;;0.30;0.20;;;;;;;13.86;83.54;101230.97;5000716;28;20457;-55
2021/09/21 05:16:40;;;;;;;0.30;0.20;;;;;;;13.85;82.85;101231.91;5005451;28;20504;-55
2021/09/21 05:19:08;;;;;;;0.30;0.20;;;;;;;13.71;85.15;101242.06;5003621;28;20452;-55
2021/09/21 05:21:36;;;;;;;0.40;0.30;;;;;;;13.79;84.19;101256.09;4998931;28;20553;-55
2021/09/21 05:24:05;;;;;;;0.30;0.20;;;;;;;13.56;85.86;101255.78;5000758;28;20512;-55
2021/09/21 05:26:33;;;;;;;4.57;0.87;;;;;;;13.56;85.95;101243.31;5005474;28;20947;-55
2021/09/21 05:29:00;;;;;;;1.70;1.70;;;;;;;13.68;86.06;101266.19;5004164;28;20456;-55
2021/09/21 05:31:27;;;;;;;0.67;0.67;;;;;;;13.71;86.42;101266.13;4999797;28;21220;-55
2021/09/21 05:33:53;;;;;;;0.40;0.30;;;;;;;13.74;86.04;101275.84;5004121;28;20510;-56
2021/09/21 05:36:20;;;;;;;0.30;0.20;;;;;;;13.71;86.08;101287.50;4998999;28;20452;-55
2021/09/21 05:38:47;;;;;;;8.00;1.07;;;;;;;13.52;84.41;101294.19;5003969;28;20993;-55
2021/09/21 05:41:16;;;;;;;0.40;0.40;;;;;;;13.46;85.79;101297.03;5008798;28;20918;-55
2021/09/21 05:43:43;;;;;;;0.30;0.20;;;;;;;13.51;85.75;101305.81;5008068;28;20483;-55
2021/09/21 05:46:10;;;;;;;0.30;0.20;;;;;;;13.63;83.84;101317.06;5002057;28;20448;-55
2021/09/21 05:48:37;;;;;;;0.30;0.20;;;;;;;13.70;83.06;101311.56;5003198;28;20489;-55
2021/09/21 05:51:04;;;;;;;0.40;0.27;;;;;;;13.81;83.55;101321.06;5008946;28;20539;-56
2021/09/21 05:53:31;;;;;;;0.70;0.70;;;;;;;13.75;81.21;101321.22;5008713;28;20483;-56
2021/09/21 05:55:58;;;;;;;0.30;0.20;;;;;;;13.90;81.41;101325.31;5003369;28;20444;-56
2021/09/21 05:58:25;;;;;;;1.00;0.70;;;;;;;13.78;81.64;101321.16;5013762;28;20453;-56
2021/09/21 06:00:54;;;;;;;0.30;0.20;;;;;;;13.84;81.90;101331.69;5002541;28;20639;-56
2021/09/21 06:03:21;;;;;;;0.30;0.20;;;;;;;13.96;81.90;101324.25;5008693;28;20572;-56
2021/09/21 06:05:48;;;;;;;0.30;0.20;;;;;;;13.92;84.22;101316.31;5004297;28;20491;-56
2021/09/21 06:08:15;;;;;;;0.30;0.20;;;;;;;13.90;85.76;101320.84;5001921;28;20472;-55
2021/09/21 06:10:42;;;;;;;0.40;0.30;;;;;;;13.93;85.49;101318.09;5006005;28;20571;-56
2021/09/21 06:13:09;;;;;;;0.30;0.20;;;;;;;13.94;88.40;101318.97;5008487;28;20523;-56
2021/09/21 06:15:36;;;;;;;0.30;0.20;;;;;;;13.87;88.42;101330.75;5004581;28;20484;-55
2021/09/21 06:18:03;;;;;;;0.80;0.63;;;;;;;13.89;86.54;101329.78;5001621;28;20507;-56
2021/09/21 06:20:30;;;;;;;0.30;0.20;;;;;;;13.70;86.90;101339.16;5005366;28;20485;-56
2021/09/21 06:22:57;;;;;;;0.30;0.20;;;;;;;13.57;88.77;101351.09;5008145;28;20500;-55
2021/09/21 06:25:23;;;;;;;0.67;0.67;;;;;;;13.63;87.21;101362.50;5004783;28;20511;-56
2021/09/21 06:27:50;;;;;;;0.40;0.30;;;;;;;13.77;85.96;101372.84;5000135;28;20452;-55
2021/09/21 06:30:18;;;;;;;0.30;0.20;;;;;;;13.98;82.95;101386.56;5006857;28;20953;-56
2021/09/21 06:32:45;;;;;;;0.40;0.30;;;;;;;13.74;84.62;101388.97;5001272;28;20874;-55
2021/09/21 06:35:12;;;;;;;0.30;0.20;;;;;;;13.70;84.65;101389.91;5004365;28;20877;-56
2021/09/21 06:37:40;;;;;;;0.30;0.20;;;;;;;13.61;85.16;101408.88;5008036;28;20515;-56
2021/09/21 06:40:08;;;;;;;2.60;1.70;;;;;;;13.60;83.74;101415.13;5005355;28;20448;-55
2021/09/21 06:42:36;;;;;;;0.30;0.20;;;;;;;13.66;84.20;101417.63;5001492;28;20511;-55
2021/09/21 06:45:04;;;;;;;0.30;0.20;;;;;;;13.66;84.20;101419.44;5003591;28;20453;-55
2021/09/21 06:47:31;;;;;;;0.80;0.80;;;;;;;13.68;84.87;101414.94;5007755;28;20449;-55
2021/09/21 06:49:58;;;;;;;0.30;0.20;;;;;;;13.75;83.62;101416.56;5005229;28;20453;-55
2021/09/21 06:52:25;;;;;;;0.30;0.20;;;;;;;13.84;82.67;101403.88;5001195;28;20507;-56
2021/09/21 06:54:52;;;;;;;0.30;0.20;;;;;;;14.01;81.43;101397.22;5002598;28;20931;-56
2021/09/21 06:57:19;;;;;;;0.40;0.30;;;;;;;14.08;80.75;101390.78;5012976;28;20788;-56
2021/09/21 06:59:46;;;;;;;0.30;0.30;;;;;;;14.24;82.03;101386.78;5001929;28;20496;-55
2021/09/21 07:02:13;;;;;;;0.30;0.20;;;;;;;13.97;79.37;101391.06;5004840;28;20503;-55
2021/09/21 07:04:41;;;;;;;0.30;0.20;;;;;;;14.03;78.95;101384.69;5001623;28;20975;-55
2021/09/21 07:07:07;;;;;;;0.67;0.67;;;;;;;14.11;78.32;101380.00;5007149;28;20935;-56
2021/09/21 07:09:35;;;;;;;0.43;0.43;;;;;;;14.38;76.69;101383.75;5006852;28;20510;-56
2021/09/21 07:12:02;;;;;;;0.30;0.20;;;;;;;14.46;76.02;101380.00;5000572;28;20492;-56
2021/09/21 07:14:29;;;;;;;0.30;0.20;;;;;;;14.43;75.46;101387.22;5001120;28;20445;-55
2021/09/21 07:16:56;;;;;;;0.30;0.20;;;;;;;14.72;75.44;101386.44;5007145;28;20480;-56
2021/09/21 07:19:23;;;;;;;0.30;0.20;;;;;;;14.51;75.44;101388.78;5007221;28;20460;-56
2021/09/21 07:21:50;;;;;;;0.30;0.20;;;;;;;14.42;75.83;101389.00;5000657;28;20469;-56
2021/09/21 07:24:18;;;;;;;0.50;0.50;;;;;;;14.49;74.86;101392.41;5000621;28;20528;-56
2021/09/21 07:26:50;;;;;;;8.03;1.80;;;;;;;14.43;75.85;101390.75;5006615;28;20449;-56
2021/09/21 07:29:18;;;;;;;0.30;0.20;;;;;;;14.48;75.59;101396.88;5007046;28;20448;-56
2021/09/21 07:31:45;;;;;;;0.30;0.20;;;;;;;14.46;75.27;101393.38;4998657;28;20935;-56
2021/09/21 07:34:12;;;;;;;0.40;0.40;;;;;;;14.68;73.69;101407.06;5006770;28;20480;-55
2021/09/21 07:36:45;;;;;;;0.30;0.20;;;;;;;14.79;72.75;101388.88;5002937;28;20532;-56
2021/09/21 07:39:13;;;;;;;0.30;0.20;;;;;;;14.97;74.01;101394.66;4999861;28;20449;-56
2021/09/21 07:41:40;;;;;;;0.30;0.20;;;;;;;14.97;72.95;101392.84;5003645;28;20474;-56
2021/09/21 07:44:09;;;;;;;1.13;1.03;;;;;;;14.98;72.56;101386.56;5006703;28;20499;-56
2021/09/21 07:46:36;;;;;;;0.30;0.20;;;;;;;14.98;71.47;101383.91;5002199;28;20456;-56
2021/09/21 07:49:03;;;;;;;0.30;0.20;;;;;;;14.99;69.28;101388.31;4999742;28;20519;-56
2021/09/21 07:51:30;;;;;;;0.30;0.20;;;;;;;14.99;69.96;101392.81;5002802;28;20496;-56
2021/09/21 07:53:57;;;;;;;0.30;0.20;;;;;;;14.95;70.82;101392.03;5006513;28;20453;-56
2021/09/21 07:56:24;;;;;;;0.30;0.20;;;;;;;15.02;68.46;101398.94;5004630;28;20476;-56
2021/09/21 07:58:51;;;;;;;0.30;0.20;;;;;;;15.27;69.43;101415.19;5008244;28;20449;-56
2021/09/21 08:01:18;;;;;;;0.30;0.20;;;;;;;15.38;69.42;101412.19;4999410;28;20528;-56
2021/09/21 08:03:46;;;;;;;0.30;0.30;;;;;;;15.37;67.79;101413.09;5006420;28;20816;-56
2021/09/21 08:06:14;;;;;;;0.40;0.30;;;;;;;15.03;66.09;101408.72;5005303;28;20862;-56
2021/09/21 08:08:42;;;;;;;8.33;2.50;;;;;;;15.32;66.42;101420.38;4999608;28;20460;-56
2021/09/21 08:11:10;;;;;;;0.30;0.20;;;;;;;15.43;66.66;101417.38;5000783;28;20544;-57
2021/09/21 08:13:38;;;;;;;0.40;0.40;;;;;;;15.59;67.44;101419.56;5004974;28;20472;-56
2021/09/21 08:16:05;;;;;;;0.30;0.20;;;;;;;15.63;63.95;101409.66;5005783;28;20460;-56
2021/09/21 08:18:32;;;;;;;0.30;0.20;;;;;;;15.69;63.66;101404.09;4999632;28;20459;-56
2021/09/21 08:21:00;;;;;;;0.30;0.20;;;;;;;15.56;63.65;101402.69;4999506;28;20453;-56
2021/09/21 08:23:27;;;;;;;0.40;0.20;;;;;;;15.74;62.41;101407.50;5005955;28;20862;-56
2021/09/21 08:25:54;;;;;;;0.30;0.20;;;;;;;15.83;61.70;101419.72;5006057;28;20520;-56
2021/09/21 08:28:26;;;;;;;1.10;0.93;;;;;;;15.62;62.27;101426.63;5001009;28;20449;-56
2021/09/21 08:30:53;;;;;;;0.40;0.30;;;;;;;15.84;62.66;101426.84;5003219;28;20492;-56
2021/09/21 08:33:20;;;;;;;0.30;0.20;;;;;;;16.01;61.76;101445.94;5001263;28;20548;-57
2021/09/21 08:35:47;;;;;;;0.40;0.30;;;;;;;15.90;61.84;101453.50;4999789;28;20461;-56
2021/09/21 08:38:14;;;;;;;0.40;0.30;;;;;;;16.03;63.48;101460.19;5004061;28;20939;-56
2021/09/21 08:40:41;;;;;;;0.50;0.30;;;;;;;15.81;62.63;101460.00;5006017;28;20456;-56
2021/09/21 08:43:08;;;;;;;0.30;0.30;;;;;;;15.94;62.16;101468.53;5001566;28;20891;-56
2021/09/21 08:45:35;;;;;;;0.40;0.33;;;;;;;16.15;62.74;101465.16;4999277;28;20545;-56
2021/09/21 08:48:03;;;;;;;0.30;0.20;;;;;;;16.15;62.72;101473.19;5003518;28;20452;-56
2021/09/21 08:50:30;;;;;;;0.40;0.30;;;;;;;16.05;62.94;101460.16;5006009;28;20858;-56
2021/09/21 08:52:57;;;;;;;0.30;0.20;;;;;;;16.27;62.43;101463.88;5001998;28;20476;-56
2021/09/21 08:55:24;;;;;;;0.40;0.40;;;;;;;16.54;60.11;101471.00;4999157;28;20483;-56
2021/09/21 08:57:56;;;;;;;0.30;0.20;;;;;;;16.18;60.78;101475.81;5002492;28;20472;-56
2021/09/21 09:00:29;;;;;;;1.73;0.63;;;;;;;16.28;60.55;101473.69;5007116;28;21012;-56
2021/09/21 09:03:11;;;;;;;0.40;0.20;;;;;;;16.18;60.66;101472.25;5004621;28;20468;-56
2021/09/21 09:05:45;;;;;;;0.30;0.20;;;;;;;16.50;61.58;101473.84;5005003;28;20445;-56
2021/09/21 09:08:33;;;;;;;0.40;0.20;;;;;;;16.52;59.70;101474.66;5005890;28;20483;-56
2021/09/21 09:11:17;;;;;;;0.33;0.20;;;;;;;16.66;59.50;101475.06;5003853;28;20484;-56
2021/09/21 09:13:46;;;;;;;0.30;0.20;;;;;;;16.52;59.64;101483.59;4990828;28;20472;-57
2021/09/21 09:16:16;;;;;;;2.30;2.10;;;;;;;16.71;59.00;101474.94;5002735;28;20458;-56
2021/09/21 09:18:47;;;;;;;0.40;0.20;;;;;;;16.63;58.83;101475.19;5007816;28;20894;-56
2021/09/21 09:21:18;;;;;;;0.40;0.20;;;;;;;16.78;59.34;101472.00;5009443;28;20796;-57
2021/09/21 09:23:50;;;;;;;0.37;0.20;;;;;;;16.79;57.89;101468.38;5005929;28;20506;-57
2021/09/21 09:26:18;;;;;;;0.40;0.30;;;;;;;16.57;57.49;101467.31;5002688;28;20448;-56
2021/09/21 09:28:46;;;;;;;0.40;0.30;;;;;;;16.92;57.85;101474.19;5005127;28;20493;-56
2021/09/21 09:31:32;;;;;;;0.40;0.33;;;;;;;16.87;58.00;101470.81;5009327;28;21016;-57
2021/09/21 09:34:09;;;;;;;0.40;0.20;;;;;;;17.04;57.32;101483.63;5009096;28;20452;-56
2021/09/21 09:37:04;;;;;;;4.47;2.23;;;;;;;17.06;55.98;101482.63;5004553;28;20444;-56
2021/09/21 09:39:31;;;;;;;0.40;0.40;;;;;;;16.85;57.01;101496.81;5000907;28;20456;-56
2021/09/21 09:42:00;;;;;;;0.37;0.20;;;;;;;16.86;57.81;101487.84;5003106;28;20846;-57
2021/09/21 09:44:30;;;;;;;0.40;0.20;;;;;;;17.03;58.89;101489.94;5009141;28;20538;-56
2021/09/21 09:47:06;;;;;;;0.37;0.20;;;;;;;17.15;56.52;101492.16;5008879;28;20543;-56
2021/09/21 09:49:36;;;;;;;0.40;0.20;;;;;;;17.07;56.05;101495.13;5004043;28;20505;-56
2021/09/21 09:52:11;;;;;;;0.63;0.60;;;;;;;17.21;56.10;101504.50;5000910;28;20507;-57
2021/09/21 09:54:41;;;;;;;0.87;0.87;;;;;;;17.21;54.33;101505.38;5005142;28;20452;-56
2021/09/21 09:57:09;;;;;;;0.40;0.20;;;;;;;17.18;55.10;101505.50;5011556;28;20856;-56
2021/09/21 09:59:37;;;;;;;1.50;1.47;;;;;;;17.44;54.54;101515.28;5004528;28;20453;-56
2021/09/21 10:02:06;;;;;;;0.40;0.20;;;;;;;17.29;53.34;101510.47;5005776;28;20503;-56
2021/09/21 10:04:35;;;;;;;0.73;0.73;;;;;;;17.30;53.79;101504.16;5003793;28;20549;-56
2021/09/21 10:07:02;;;;;;;0.40;0.20;;;;;;;17.41;54.26;101493.91;5008510;28;20486;-56
2021/09/21 10:09:29;;;;;;;0.40;0.20;;;;;;;17.38;51.96;101497.56;5006807;28;20459;-56
2021/09/21 10:11:59;;;;;;;0.40;0.33;;;;;;;17.44;50.11;101491.09;5001263;28;20531;-57
2021/09/21 10:14:27;;;;;;;0.40;0.30;;;;;;;17.44;48.98;101496.47;5002848;28;20445;-56
2021/09/21 10:16:59;;;;;;;0.40;0.20;;;;;;;17.39;48.63;101491.25;5008677;28;20564;-56
2021/09/21 10:19:27;;;;;;;0.40;0.20;;;;;;;17.71;49.23;101490.06;5008374;28;20524;-56
2021/09/21 10:21:55;;;;;;;0.40;0.40;;;;;;;17.55;49.10;101485.31;4989994;28;20889;-57
2021/09/21 10:24:39;;;;;;;2.87;0.77;;;;;;;17.53;49.80;101479.97;5001612;28;20469;-56
2021/09/21 10:27:12;;;;;;;1.43;0.67;;;;;;;17.63;49.10;101476.00;5004845;28;20801;-56
2021/09/21 10:29:39;;;;;;;0.40;0.30;;;;;;;17.98;48.71;101476.47;5008532;28;20477;-57
2021/09/21 10:32:15;;;;;;;0.50;0.50;;;;;;;17.99;48.16;101465.63;4999759;28;20497;-56
2021/09/21 10:34:45;;;;;;;0.50;0.50;;;;;;;18.02;48.21;101462.81;5008115;28;20446;-56
2021/09/21 10:37:15;;;;;;;0.40;0.20;;;;;;;18.11;47.97;101458.88;5007219;28;20820;-56
2021/09/21 10:39:42;;;;;;;0.40;0.30;;;;;;;17.79;47.87;101473.59;5001126;28;20887;-57
2021/09/21 10:42:11;;;;;;;0.40;0.30;;;;;;;17.80;49.58;101464.59;5001444;28;20528;-57
2021/09/21 10:44:52;;;;;;;1.13;0.70;;;;;;;17.87;49.06;101474.19;5002045;28;20488;-57
2021/09/21 10:47:22;;;;;;;0.40;0.20;;;;;;;17.84;50.10;101471.63;5001397;28;20488;-57
2021/09/21 10:49:55;;;;;;;1.70;0.97;;;;;;;17.69;49.29;101461.47;5004403;28;20931;-56
2021/09/21 10:52:26;;;;;;;0.60;0.60;;;;;;;17.77;48.84;101448.59;5009633;28;20528;-56
2021/09/21 10:54:56;;;;;;;0.40;0.20;;;;;;;17.95;49.17;101465.81;5006277;28;20511;-57
2021/09/21 10:57:42;;;;;;;0.40;0.30;;;;;;;17.73;48.70;101466.69;5014160;28;20511;-57
2021/09/21 11:00:15;;;;;;;2.70;2.50;;;;;;;17.86;48.28;101477.81;5001521;28;20453;-57
2021/09/21 11:02:44;;;;;;;1.90;0.80;;;;;;;17.99;48.09;101454.88;5007460;28;20469;-57
2021/09/21 11:05:15;;;;;;;0.57;0.57;;;;;;;18.09;48.46;101466.13;5000591;28;20988;-56
2021/09/21 11:07:58;;;;;;;0.40;0.20;;;;;;;17.79;49.10;101468.22;5002902;28;20847;-57
2021/09/21 11:10:29;;;;;;;0.40;0.20;;;;;;;18.15;49.39;101473.09;4987763;28;20457;-57
2021/09/21 11:12:57;;;;;;;0.40;0.20;;;;;;;18.00;48.18;101472.78;5000751;28;20498;-54
2021/09/21 11:15:26;;;;;;;0.60;0.60;;;;;;;18.13;48.13;101485.72;5006619;28;20445;-55
2021/09/21 11:18:24;;;;;;;0.43;0.30;;;;;;;17.86;47.13;101487.72;5007059;28;21016;-54
2021/09/21 11:21:00;;;;;;;0.40;0.20;;;;;;;18.22;46.57;101486.22;5006092;28;20945;-54
2021/09/21 11:23:30;;;;;;;0.40;0.20;;;;;;;17.93;46.75;101499.97;5006509;28;20477;-54
2021/09/21 11:26:00;;;;;;;0.43;0.40;;;;;;;18.08;47.89;101490.41;5007054;28;20810;-54
2021/09/21 11:28:37;;;;;;;0.40;0.20;;;;;;;18.23;46.69;101479.91;5002034;28;20503;-54
2021/09/21 11:31:05;;;;;;;0.40;0.20;;;;;;;18.20;47.57;101484.53;5002760;28;20503;-55
2021/09/21 11:33:36;;;;;;;0.43;0.37;;;;;;;18.48;47.46;101481.56;5003488;28;20492;-54
2021/09/21 11:36:15;;;;;;;0.40;0.20;;;;;;;18.40;46.12;101483.72;4999504;28;20448;-54
2021/09/21 11:38:46;;;;;;;1.90;0.40;;;;;;;18.29;46.48;101481.47;5001178;28;20951;-54
2021/09/21 11:41:14;;;;;;;0.40;0.20;;;;;;;17.90;46.63;101489.34;5006767;28;20867;-54
2021/09/21 11:43:41;;;;;;;0.40;0.20;;;;;;;18.13;46.97;101477.66;5006722;28;20475;-54
2021/09/21 11:46:29;;;;;;;0.40;0.20;;;;;;;18.33;46.80;101492.03;4992002;28;21063;-54
2021/09/21 11:48:59;;;;;;;0.50;0.20;;;;;;;18.12;46.95;101481.28;5000024;28;20499;-55
2021/09/21 11:51:26;;;;;;;0.40;0.20;;;;;;;18.05;47.17;101475.25;4993994;28;20474;-54